Time;durP1;ratioP1;P1;durP2;ratioP2;P2;SDS_P1;SDS_P2;PMS_P1;PMS_P2;Temp;Humidity;BMP_temperature;BMP_pressure;BME280_temperature;BME280_humidity;BME280_pressure;Samples;Min_cycle;Max_cycle;Signal;HPM_P1;HPM_P2
2021/01/26 00:01:20;;;;;;;5.18;0.95;;;;;;;;;;5014113;28;20136;-66
2021/01/26 00:03:48;;;;;;;3.95;1.15;;;;;;;;;;5032141;28;20039;-66
2021/01/26 00:06:14;;;;;;;12.88;1.50;;;;;;;;;;5028034;28;20296;-63
2021/01/26 00:08:47;;;;;;;4.32;0.77;;;;;;;;;;5000535;28;20250;-65
2021/01/26 00:11:13;;;;;;;8.60;1.38;;;;;;;;;;5031938;28;20021;-65
2021/01/26 00:13:41;;;;;;;1.98;1.35;;;;;;;;;;5010864;28;20491;-65
2021/01/26 00:16:09;;;;;;;2.80;1.45;;;;;;;;;;5031573;28;20311;-65
2021/01/26 00:18:37;;;;;;;3.90;1.45;;;;;;;;;;5020161;28;20044;-65
2021/01/26 00:21:02;;;;;;;3.15;1.00;;;;;;;;;;5032957;28;21745;-65
2021/01/26 00:23:30;;;;;;;3.38;1.27;;;;;;;;;;5029564;28;20142;-65
2021/01/26 00:25:56;;;;;;;1.92;1.30;;;;;;;;;;5029620;28;20029;-65
2021/01/26 00:28:21;;;;;;;2.38;0.93;;;;;;;;;;5007328;28;20093;-64
2021/01/26 00:30:49;;;;;;;1.15;0.82;;;;;;;;;;4999502;28;20040;-66
2021/01/26 00:33:16;;;;;;;1.73;0.88;;;;;;;;;;5033488;28;20033;-65
2021/01/26 00:35:44;;;;;;;5.55;1.10;;;;;;;;;;5026374;28;20032;-65
2021/01/26 00:38:13;;;;;;;3.30;1.52;;;;;;;;;;5006799;28;20035;-64
2021/01/26 00:40:43;;;;;;;3.33;1.63;;;;;;;;;;5030108;28;20166;-64
2021/01/26 00:43:12;;;;;;;6.63;2.70;;;;;;;;;;5023705;28;20076;-64
2021/01/26 00:45:38;;;;;;;6.35;3.03;;;;;;;;;;5023158;28;20037;-64
2021/01/26 00:48:04;;;;;;;5.32;2.83;;;;;;;;;;5030184;28;20037;-64
2021/01/26 00:50:31;;;;;;;10.30;2.85;;;;;;;;;;5020671;28;20076;-63
2021/01/26 00:53:00;;;;;;;6.95;2.42;;;;;;;;;;5029330;28;20534;-64
2021/01/26 00:55:30;;;;;;;6.00;2.67;;;;;;;;;;5031580;28;20032;-64
2021/01/26 00:57:58;;;;;;;4.90;2.53;;;;;;;;;;5016399;28;20803;-64
2021/01/26 01:00:28;;;;;;;5.68;2.25;;;;;;;;;;5033003;28;20032;-64
2021/01/26 01:02:54;;;;;;;7.05;2.58;;;;;;;;;;5033958;28;20036;-65
2021/01/26 01:05:22;;;;;;;5.68;2.88;;;;;;;;;;5035572;28;20040;-64
2021/01/26 01:07:48;;;;;;;7.40;3.25;;;;;;;;;;5032186;28;20024;-65
2021/01/26 01:10:23;;;;;;;5.63;3.22;;;;;;;;;;5047992;28;20040;-64
2021/01/26 01:12:51;;;;;;;6.22;3.25;;;;;;;;;;5022277;28;20519;-64
2021/01/26 01:15:17;;;;;;;6.85;3.70;;;;;;;;;;5015191;28;20143;-62
2021/01/26 01:17:45;;;;;;;9.77;4.40;;;;;;;;;;5035050;28;20631;-64
2021/01/26 01:20:14;;;;;;;7.18;3.88;;;;;;;;;;5034215;28;20024;-65
2021/01/26 01:22:42;;;;;;;7.10;3.80;;;;;;;;;;5048962;28;20089;-67
2021/01/26 01:25:07;;;;;;;7.90;4.15;;;;;;;;;;5033049;28;20594;-66
2021/01/26 01:27:33;;;;;;;7.53;3.75;;;;;;;;;;5014670;28;20127;-65
2021/01/26 01:29:58;;;;;;;6.22;3.50;;;;;;;;;;5034425;28;20043;-66
2021/01/26 01:43:15;;;;;;;7.22;3.22;;;;;;;;;;5029393;28;20081;-64
2021/01/26 01:45:46;;;;;;;8.38;3.85;;;;;;;;;;4981556;28;20488;-64
2021/01/26 01:48:26;;;;;;;7.22;3.97;;;;;;;;;;5014997;28;20072;-65
2021/01/26 01:50:58;;;;;;;10.30;3.92;;;;;;;;;;5013350;28;20025;-64
2021/01/26 01:53:25;;;;;;;9.40;4.07;;;;;;;;;;4998525;28;20029;-64
2021/01/26 01:55:55;;;;;;;12.18;5.30;;;;;;;;;;5030340;28;20344;-64
2021/01/26 01:58:25;;;;;;;11.15;5.72;;;;;;;;;;4996353;28;20037;-63
2021/01/26 02:00:55;;;;;;;8.35;3.97;;;;;;;;;;4996294;28;20271;-64
2021/01/26 02:03:23;;;;;;;12.15;5.07;;;;;;;;;;5011380;28;20049;-63
2021/01/26 02:05:50;;;;;;;11.75;4.93;;;;;;;;;;4996240;28;20025;-63
2021/01/26 02:08:42;;;;;;;13.32;5.88;;;;;;;;;;5013023;28;20293;-63
2021/01/26 02:11:07;;;;;;;14.95;4.45;;;;;;;;;;4991606;28;20120;-62
2021/01/26 02:13:33;;;;;;;9.15;4.35;;;;;;;;;;5012701;28;20488;-63
2021/01/26 02:15:59;;;;;;;11.75;4.70;;;;;;;;;;5027854;28;20108;-63
2021/01/26 02:18:56;;;;;;;8.70;4.38;;;;;;;;;;4995165;28;20025;-63
2021/01/26 02:21:28;;;;;;;8.45;3.63;;;;;;;;;;5010303;28;20037;-63
2021/01/26 02:24:12;;;;;;;7.15;3.97;;;;;;;;;;4991012;28;20305;-62
2021/01/26 02:26:44;;;;;;;7.10;4.25;;;;;;;;;;5007425;28;21025;-63
2021/01/26 02:29:16;;;;;;;13.40;5.47;;;;;;;;;;4984271;28;20068;-62
2021/01/26 02:31:50;;;;;;;7.97;4.28;;;;;;;;;;5004605;28;20028;-62
2021/01/26 02:34:16;;;;;;;10.98;4.18;;;;;;;;;;5013951;28;20025;-62
2021/01/26 02:36:49;;;;;;;13.27;5.20;;;;;;;;;;5012508;28;20025;-63
2021/01/26 02:39:33;;;;;;;14.35;5.40;;;;;;;;;;5013344;28;20171;-63
2021/01/26 02:42:10;;;;;;;10.73;4.70;;;;;;;;;;4993172;28;20084;-63
2021/01/26 02:44:41;;;;;;;11.90;5.10;;;;;;;;;;5014320;28;20108;-62
2021/01/26 02:47:29;;;;;;;9.68;3.88;;;;;;;;;;5014411;28;20045;-63
2021/01/26 02:49:55;;;;;;;8.57;4.68;;;;;;;;;;5013552;28;20381;-62
2021/01/26 02:52:34;;;;;;;9.27;4.47;;;;;;;;;;5013038;28;20753;-62
2021/01/26 02:55:03;;;;;;;10.10;5.13;;;;;;;;;;4993483;28;20029;-63
2021/01/26 02:57:44;;;;;;;11.10;4.72;;;;;;;;;;5003827;28;20034;-61
2021/01/26 03:00:29;;;;;;;7.50;3.60;;;;;;;;;;4986021;28;20687;-62
2021/01/26 03:03:01;;;;;;;13.50;5.25;;;;;;;;;;5010003;28;20049;-64
2021/01/26 03:05:26;;;;;;;11.75;4.78;;;;;;;;;;4994251;28;20108;-63
2021/01/26 03:08:05;;;;;;;12.48;4.18;;;;;;;;;;5026966;28;20578;-62
2021/01/26 03:10:35;;;;;;;9.68;4.18;;;;;;;;;;5012289;28;20037;-62
2021/01/26 03:13:06;;;;;;;9.63;4.28;;;;;;;;;;5013911;28;20029;-62
2021/01/26 03:15:44;;;;;;;10.63;4.22;;;;;;;;;;4995781;28;20033;-62
2021/01/26 03:18:16;;;;;;;8.90;4.10;;;;;;;;;;5011330;28;20168;-63
2021/01/26 03:20:43;;;;;;;9.40;4.43;;;;;;;;;;5000208;28;20025;-64
2021/01/26 03:23:16;;;;;;;8.90;4.18;;;;;;;;;;5011553;28;20029;-62
2021/01/26 03:25:46;;;;;;;10.75;4.60;;;;;;;;;;5012470;28;20044;-63
2021/01/26 03:28:16;;;;;;;8.05;4.20;;;;;;;;;;5012050;28;20036;-61
2021/01/26 03:30:50;;;;;;;9.27;3.75;;;;;;;;;;4995841;28;20029;-63
2021/01/26 03:33:29;;;;;;;11.02;4.15;;;;;;;;;;5011983;28;20017;-62
2021/01/26 03:35:57;;;;;;;9.38;4.28;;;;;;;;;;5010859;28;20032;-61
2021/01/26 03:38:24;;;;;;;6.70;3.75;;;;;;;;;;5027173;28;20032;-61
2021/01/26 03:40:53;;;;;;;12.07;4.57;;;;;;;;;;5013532;28;20041;-61
2021/01/26 03:43:19;;;;;;;8.90;4.43;;;;;;;;;;4994930;28;20396;-61
2021/01/26 03:45:53;;;;;;;9.35;4.13;;;;;;;;;;5014017;28;21578;-61
2021/01/26 03:48:34;;;;;;;9.93;4.25;;;;;;;;;;5026479;28;20317;-61
2021/01/26 03:51:22;;;;;;;7.95;3.85;;;;;;;;;;5006819;28;20033;-60
2021/01/26 03:53:59;;;;;;;8.85;3.35;;;;;;;;;;4979735;28;20741;-60
2021/01/26 03:56:49;;;;;;;6.97;3.75;;;;;;;;;;4995155;28;20037;-62
2021/01/26 03:59:22;;;;;;;7.57;3.25;;;;;;;;;;5010190;28;20126;-60
2021/01/26 04:01:55;;;;;;;7.85;3.40;;;;;;;;;;5011997;28;20033;-60
2021/01/26 04:04:25;;;;;;;8.00;3.63;;;;;;;;;;4993783;28;20551;-62
2021/01/26 04:06:54;;;;;;;8.82;3.88;;;;;;;;;;4998797;28;20036;-61
2021/01/26 04:09:23;;;;;;;8.38;3.55;;;;;;;;;;5012475;28;20025;-60
2021/01/26 04:11:51;;;;;;;6.60;3.25;;;;;;;;;;5012329;28;20025;-61
2021/01/26 04:14:21;;;;;;;6.32;2.80;;;;;;;;;;4993910;28;20467;-61
2021/01/26 04:16:50;;;;;;;6.40;3.00;;;;;;;;;;5026592;28;20090;-60
2021/01/26 04:19:19;;;;;;;7.88;3.78;;;;;;;;;;5004596;28;20033;-61
2021/01/26 04:21:46;;;;;;;9.70;4.28;;;;;;;;;;4991899;28;20025;-61
2021/01/26 04:24:14;;;;;;;7.40;3.08;;;;;;;;;;4995581;28;20020;-61
2021/01/26 04:26:45;;;;;;;8.68;4.55;;;;;;;;;;5004343;28;20029;-62
2021/01/26 04:29:13;;;;;;;7.32;3.58;;;;;;;;;;5011931;28;20156;-60
2021/01/26 04:31:42;;;;;;;5.45;3.50;;;;;;;;;;5015356;28;20021;-62
2021/01/26 04:34:07;;;;;;;7.20;3.53;;;;;;;;;;5003326;28;20057;-60
2021/01/26 04:36:32;;;;;;;7.53;3.33;;;;;;;;;;5029411;28;20017;-62
2021/01/26 04:39:01;;;;;;;7.32;2.88;;;;;;;;;;5030507;28;20251;-63
2021/01/26 04:41:29;;;;;;;6.40;3.33;;;;;;;;;;5014511;28;20037;-61
2021/01/26 04:44:11;;;;;;;8.77;3.00;;;;;;;;;;5015235;28;20116;-61
2021/01/26 04:46:55;;;;;;;8.25;3.03;;;;;;;;;;5015627;28;20092;-61
2021/01/26 04:49:27;;;;;;;8.77;3.67;;;;;;;;;;5014225;28;20099;-61
2021/01/26 04:51:53;;;;;;;6.82;3.38;;;;;;;;;;5029431;28;21638;-62
2021/01/26 04:54:40;;;;;;;8.05;3.40;;;;;;;;;;5014880;28;20029;-61
2021/01/26 04:57:13;;;;;;;6.53;2.83;;;;;;;;;;5016818;28;20033;-62
2021/01/26 04:59:52;;;;;;;9.02;3.65;;;;;;;;;;4999524;28;20037;-61
2021/01/26 05:02:24;;;;;;;8.18;3.75;;;;;;;;;;5001970;28;20047;-62
2021/01/26 05:05:02;;;;;;;7.70;3.13;;;;;;;;;;5014930;28;20484;-62
2021/01/26 05:07:30;;;;;;;5.97;2.97;;;;;;;;;;5016864;28;20033;-62
2021/01/26 05:10:07;;;;;;;9.38;4.05;;;;;;;;;;4997879;28;20032;-61
2021/01/26 05:12:35;;;;;;;8.45;3.63;;;;;;;;;;5028164;28;20836;-61
2021/01/26 05:15:05;;;;;;;6.60;3.13;;;;;;;;;;5014816;28;20032;-61
2021/01/26 05:17:38;;;;;;;8.10;3.63;;;;;;;;;;4996940;28;20735;-61
2021/01/26 05:20:19;;;;;;;8.25;3.78;;;;;;;;;;5000347;28;20037;-61
2021/01/26 05:22:56;;;;;;;10.15;4.03;;;;;;;;;;5004451;28;20041;-61
2021/01/26 05:25:24;;;;;;;6.72;3.10;;;;;;;;;;5014072;28;20488;-62
2021/01/26 05:27:50;;;;;;;9.45;3.08;;;;;;;;;;5014876;28;20037;-60
2021/01/26 05:30:26;;;;;;;5.53;3.50;;;;;;;;;;5011740;28;20030;-62
2021/01/26 05:32:57;;;;;;;6.85;3.25;;;;;;;;;;4996088;28;20104;-61
2021/01/26 05:35:27;;;;;;;9.45;3.85;;;;;;;;;;5015469;28;20044;-61
2021/01/26 05:37:55;;;;;;;8.85;3.97;;;;;;;;;;4998083;28;20117;-60
2021/01/26 05:40:24;;;;;;;7.53;3.42;;;;;;;;;;5013532;28;20385;-60
2021/01/26 05:42:58;;;;;;;9.32;3.70;;;;;;;;;;5014969;28;20029;-61
2021/01/26 05:49:02;;;;;;;7.25;3.45;;;;;;;;;;5013030;28;20291;-62
2021/01/26 05:51:28;;;;;;;12.35;4.50;;;;;;;;;;4996405;28;20260;-61
2021/01/26 05:54:00;;;;;;;10.00;3.67;;;;;;;;;;5014927;28;20119;-61
2021/01/26 05:59:36;;;;;;;7.25;3.58;;;;;;;;;;5013335;28;20047;-62
2021/01/26 06:02:28;;;;;;;5.27;3.37;;;;;;;;;;5013335;28;21694;-62
2021/01/26 06:05:05;;;;;;;7.45;3.17;;;;;;;;;;4994752;28;20704;-62
2021/01/26 06:07:30;;;;;;;7.13;3.53;;;;;;;;;;5001046;28;20087;-60
2021/01/26 06:09:56;;;;;;;4.63;2.75;;;;;;;;;;5026176;28;20140;-62
2021/01/26 06:12:23;;;;;;;11.02;3.92;;;;;;;;;;5024737;28;20033;-62
2021/01/26 06:14:55;;;;;;;7.50;4.10;;;;;;;;;;4997174;28;20480;-61
2021/01/26 06:17:20;;;;;;;8.35;3.67;;;;;;;;;;5013408;28;20394;-62
2021/01/26 06:20:00;;;;;;;9.55;4.43;;;;;;;;;;5001155;28;20029;-60
2021/01/26 06:22:29;;;;;;;22.38;4.28;;;;;;;;;;5013961;28;20029;-61
2021/01/26 06:24:58;;;;;;;8.07;3.90;;;;;;;;;;5014701;28;20056;-61
2021/01/26 06:27:24;;;;;;;13.18;3.60;;;;;;;;;;5014367;28;20119;-62
2021/01/26 06:29:49;;;;;;;7.72;3.00;;;;;;;;;;5013681;28;20029;-60
2021/01/26 06:32:30;;;;;;;13.63;4.13;;;;;;;;;;5013337;28;20135;-61
2021/01/26 06:35:02;;;;;;;9.85;3.83;;;;;;;;;;4988289;28;20388;-60
2021/01/26 06:37:31;;;;;;;9.05;4.32;;;;;;;;;;5013284;28;20077;-61
2021/01/26 06:40:05;;;;;;;7.85;3.47;;;;;;;;;;5013490;28;20083;-60
2021/01/26 06:42:44;;;;;;;9.77;4.13;;;;;;;;;;5027859;28;20035;-60
2021/01/26 06:45:24;;;;;;;10.68;4.00;;;;;;;;;;5013411;28;20037;-60
2021/01/26 06:48:07;;;;;;;6.78;3.05;;;;;;;;;;5013493;28;20194;-60
2021/01/26 06:50:54;;;;;;;9.15;3.97;;;;;;;;;;5009330;28;20024;-60
2021/01/26 06:53:29;;;;;;;9.15;3.95;;;;;;;;;;5011341;28;20996;-63
2021/01/26 06:56:08;;;;;;;9.68;3.55;;;;;;;;;;5011587;28;20055;-59
2021/01/26 06:58:37;;;;;;;9.25;3.65;;;;;;;;;;5013789;28;20127;-60
2021/01/26 07:01:25;;;;;;;12.93;4.13;;;;;;;;;;5013478;28;20048;-62
2021/01/26 07:03:51;;;;;;;10.93;4.05;;;;;;;;;;5012716;28;20025;-61
2021/01/26 07:06:22;;;;;;;11.60;4.72;;;;;;;;;;4997332;28;20212;-61
2021/01/26 07:09:05;;;;;;;8.73;4.15;;;;;;;;;;5010722;28;20045;-60
2021/01/26 07:11:37;;;;;;;11.90;3.67;;;;;;;;;;5012178;28;20110;-59
2021/01/26 07:14:11;;;;;;;11.32;4.45;;;;;;;;;;4995921;28;20080;-60
2021/01/26 07:16:42;;;;;;;8.93;4.20;;;;;;;;;;5012381;28;20056;-60
2021/01/26 07:19:17;;;;;;;11.57;4.07;;;;;;;;;;4996878;28;20597;-60
2021/01/26 07:21:42;;;;;;;13.90;4.47;;;;;;;;;;5014197;28;20446;-59
2021/01/26 07:24:23;;;;;;;9.88;4.10;;;;;;;;;;5013011;28;20190;-60
2021/01/26 07:26:56;;;;;;;9.38;4.13;;;;;;;;;;5000436;28;20425;-59
2021/01/26 07:29:23;;;;;;;9.88;3.50;;;;;;;;;;5020222;28;20041;-59
2021/01/26 07:32:07;;;;;;;11.20;5.10;;;;;;;;;;5011566;28;20021;-60
2021/01/26 07:34:42;;;;;;;6.90;2.60;;;;;;;;;;5012638;28;20641;-60
2021/01/26 07:37:07;;;;;;;;;;;;;;;;;;5019305;28;20120;-61
2021/01/26 07:39:38;;;;;;;10.45;3.17;;;;;;;;;;5007305;28;19943;-60
2021/01/26 07:42:04;;;;;;;14.43;4.07;;;;;;;;;;4998081;28;20738;-61
2021/01/26 07:44:37;;;;;;;8.70;3.80;;;;;;;;;;5010043;28;20033;-60
2021/01/26 07:47:23;;;;;;;8.05;3.10;;;;;;;;;;5004493;28;20255;-61
2021/01/26 07:49:54;;;;;;;8.90;4.85;;;;;;;;;;5013183;28;20614;-61
2021/01/26 07:52:20;;;;;;;8.48;3.55;;;;;;;;;;5000701;28;20771;-60
2021/01/26 07:55:03;;;;;;;14.00;4.70;;;;;;;;;;5013157;28;20523;-59
2021/01/26 07:57:49;;;;;;;17.33;5.18;;;;;;;;;;5005560;28;20603;-61
2021/01/26 08:00:20;;;;;;;9.20;4.30;;;;;;;;;;5002481;28;20435;-61
2021/01/26 08:02:50;;;;;;;9.02;4.30;;;;;;;;;;5010139;28;20061;-61
2021/01/26 08:05:56;;;;;;;10.63;3.65;;;;;;;;;;4999738;28;20053;-61
2021/01/26 08:08:24;;;;;;;12.88;4.68;;;;;;;;;;4971601;28;20045;-60
2021/01/26 08:11:10;;;;;;;12.10;4.25;;;;;;;;;;5015476;28;20017;-62
2021/01/26 08:13:42;;;;;;;10.63;4.75;;;;;;;;;;5029329;28;20025;-61
2021/01/26 08:16:16;;;;;;;11.20;4.72;;;;;;;;;;5029052;28;20033;-60
2021/01/26 08:18:42;;;;;;;;;;;;;;;;;;5017019;28;20612;-60
2021/01/26 08:21:30;;;;;;;12.27;4.55;;;;;;;;;;5015589;28;19928;-61
2021/01/26 08:24:18;;;;;;;12.15;4.05;;;;;;;;;;5015731;28;20033;-60
2021/01/26 08:26:45;;;;;;;13.88;4.38;;;;;;;;;;5009529;28;20245;-62
2021/01/26 08:29:30;;;;;;;14.10;4.45;;;;;;;;;;5014014;28;20034;-61
2021/01/26 08:32:18;;;;;;;9.32;3.92;;;;;;;;;;4999332;28;20033;-60
2021/01/26 08:34:57;;;;;;;8.50;4.25;;;;;;;;;;5015245;28;20473;-60
2021/01/26 08:37:25;;;;;;;11.90;4.15;;;;;;;;;;5008841;28;20041;-61
2021/01/26 08:39:51;;;;;;;12.35;4.95;;;;;;;;;;4999696;28;20128;-61
2021/01/26 08:42:59;;;;;;;13.10;5.00;;;;;;;;;;5015209;28;20037;-61
2021/01/26 08:45:27;;;;;;;9.32;4.13;;;;;;;;;;4960845;28;20652;-63
2021/01/26 08:47:58;;;;;;;11.98;4.22;;;;;;;;;;4962707;28;20536;-61
2021/01/26 08:50:46;;;;;;;8.68;3.97;;;;;;;;;;4979956;28;20045;-61
2021/01/26 08:53:16;;;;;;;11.45;3.90;;;;;;;;;;5007806;28;20554;-61
2021/01/26 08:55:47;;;;;;;10.93;3.70;;;;;;;;;;5002071;28;20035;-59
2021/01/26 08:58:34;;;;;;;11.80;3.90;;;;;;;;;;4995592;28;20239;-61
2021/01/26 09:01:00;;;;;;;9.60;4.15;;;;;;;;;;5010877;28;20030;-61
2021/01/26 09:03:33;;;;;;;11.40;4.40;;;;;;;;;;5012722;28;21631;-60
2021/01/26 09:05:59;;;;;;;9.70;4.32;;;;;;;;;;5015999;28;20097;-61
2021/01/26 09:08:39;;;;;;;12.18;4.28;;;;;;;;;;5008938;28;20447;-60
2021/01/26 09:11:07;;;;;;;9.88;4.28;;;;;;;;;;5006534;28;20095;-60
2021/01/26 09:13:36;;;;;;;8.68;3.95;;;;;;;;;;4987905;28;20029;-61
2021/01/26 09:16:14;;;;;;;7.80;3.50;;;;;;;;;;5001909;28;20029;-59
2021/01/26 09:18:39;;;;;;;6.78;3.03;;;;;;;;;;5010778;28;20556;-61
2021/01/26 09:21:09;;;;;;;8.30;3.60;;;;;;;;;;5012630;28;20052;-61
2021/01/26 09:23:39;;;;;;;7.68;3.40;;;;;;;;;;4997888;28;20098;-62
2021/01/26 09:26:13;;;;;;;7.55;3.42;;;;;;;;;;5006540;28;20131;-60
2021/01/26 09:28:40;;;;;;;7.45;2.85;;;;;;;;;;4995183;28;20156;-60
2021/01/26 09:31:05;;;;;;;6.65;3.20;;;;;;;;;;5015159;28;20021;-61
2021/01/26 09:33:33;;;;;;;6.05;2.95;;;;;;;;;;5015002;28;20037;-60
2021/01/26 09:36:01;;;;;;;6.82;3.13;;;;;;;;;;4996201;28;20021;-60
2021/01/26 09:38:33;;;;;;;6.15;3.03;;;;;;;;;;4989095;28;20587;-61
2021/01/26 09:41:14;;;;;;;5.25;2.90;;;;;;;;;;5015188;28;20040;-61
2021/01/26 09:43:43;;;;;;;3.40;2.13;;;;;;;;;;5013273;28;20032;-59
2021/01/26 09:46:09;;;;;;;6.82;2.90;;;;;;;;;;5012217;28;20025;-61
2021/01/26 09:48:41;;;;;;;4.72;2.38;;;;;;;;;;5008973;28;20056;-60
2021/01/26 09:51:10;;;;;;;5.05;2.58;;;;;;;;;;5012790;28;20055;-62
2021/01/26 09:53:36;;;;;;;4.65;2.67;;;;;;;;;;4993980;28;20021;-63
2021/01/26 09:56:03;;;;;;;5.68;3.15;;;;;;;;;;5014112;28;20509;-60
2021/01/26 09:58:30;;;;;;;9.13;2.63;;;;;;;;;;5013929;28;20098;-61
2021/01/26 10:00:58;;;;;;;4.85;2.55;;;;;;;;;;5012877;28;20037;-63
2021/01/26 10:03:25;;;;;;;10.98;2.72;;;;;;;;;;5014764;28;20048;-62
2021/01/26 10:05:56;;;;;;;10.07;3.08;;;;;;;;;;5013403;28;20159;-61
2021/01/26 10:08:24;;;;;;;5.38;2.20;;;;;;;;;;5010671;28;20037;-60
2021/01/26 10:10:50;;;;;;;4.93;2.55;;;;;;;;;;5009310;28;20104;-61
2021/01/26 10:13:20;;;;;;;6.22;2.35;;;;;;;;;;5012049;28;20450;-60
2021/01/26 10:15:45;;;;;;;3.85;2.05;;;;;;;;;;5029869;28;20033;-62
2021/01/26 10:18:14;;;;;;;4.90;2.40;;;;;;;;;;4992237;28;20028;-61
2021/01/26 10:20:48;;;;;;;7.30;2.80;;;;;;;;;;5013882;28;20255;-62
2021/01/26 10:23:20;;;;;;;7.63;2.83;;;;;;;;;;5028690;28;20029;-62
2021/01/26 10:25:47;;;;;;;4.40;2.08;;;;;;;;;;5013264;28;20029;-61
2021/01/26 10:28:12;;;;;;;7.15;2.53;;;;;;;;;;5025894;28;20077;-60
2021/01/26 10:30:39;;;;;;;5.40;3.17;;;;;;;;;;5012353;28;20060;-61
2021/01/26 10:33:09;;;;;;;6.47;2.50;;;;;;;;;;4993106;28;20067;-60
2021/01/26 10:35:36;;;;;;;8.10;2.45;;;;;;;;;;5027248;28;20251;-62
2021/01/26 10:38:20;;;;;;;5.28;1.80;;;;;;;;;;4995127;28;20025;-62
2021/01/26 10:40:46;;;;;;;4.47;1.95;;;;;;;;;;5013309;28;20770;-60
2021/01/26 10:43:20;;;;;;;4.60;1.77;;;;;;;;;;5001895;28;20120;-62
2021/01/26 10:45:52;;;;;;;4.70;1.80;;;;;;;;;;5013639;28;20095;-61
2021/01/26 10:48:17;;;;;;;4.72;1.73;;;;;;;;;;4996305;28;20051;-61
2021/01/26 10:50:43;;;;;;;5.95;2.53;;;;;;;;;;5011784;28;20668;-62
2021/01/26 10:53:11;;;;;;;5.88;2.28;;;;;;;;;;5010276;28;20117;-61
2021/01/26 10:55:39;;;;;;;2.75;1.23;;;;;;;;;;5013501;28;20060;-62
2021/01/26 10:58:04;;;;;;;3.33;1.40;;;;;;;;;;5018347;28;20745;-62
2021/01/26 11:00:30;;;;;;;3.22;1.63;;;;;;;;;;5010021;28;20087;-61
2021/01/26 11:02:56;;;;;;;6.22;1.27;;;;;;;;;;5022225;28;20040;-61
2021/01/26 11:05:22;;;;;;;3.30;1.10;;;;;;;;;;5010719;28;20021;-61
2021/01/26 11:07:48;;;;;;;5.18;1.38;;;;;;;;;;4994568;28;20049;-61
2021/01/26 11:10:17;;;;;;;1.13;0.82;;;;;;;;;;5010226;28;20083;-61
2021/01/26 11:12:43;;;;;;;6.45;1.23;;;;;;;;;;5012851;28;20308;-61
2021/01/26 11:15:15;;;;;;;4.55;1.02;;;;;;;;;;4987929;28;20056;-61
2021/01/26 11:17:40;;;;;;;3.58;0.90;;;;;;;;;;5010168;28;20057;-61
2021/01/26 11:20:07;;;;;;;5.00;1.30;;;;;;;;;;5012947;28;20133;-61
2021/01/26 11:22:33;;;;;;;3.67;0.80;;;;;;;;;;5010421;28;20576;-62
2021/01/26 11:25:05;;;;;;;5.10;1.15;;;;;;;;;;5005766;28;20016;-62
2021/01/26 11:27:31;;;;;;;3.13;1.00;;;;;;;;;;5003062;28;20124;-61
2021/01/26 11:29:59;;;;;;;4.40;1.02;;;;;;;;;;5005583;28;20031;-61
2021/01/26 11:32:29;;;;;;;3.45;1.15;;;;;;;;;;5020602;28;20032;-61
2021/01/26 11:34:55;;;;;;;3.75;1.40;;;;;;;;;;4992022;28;20247;-61
2021/01/26 11:37:20;;;;;;;3.42;0.80;;;;;;;;;;5013149;28;20139;-62
2021/01/26 11:39:45;;;;;;;1.88;1.05;;;;;;;;;;5007317;28;20347;-61
2021/01/26 11:42:11;;;;;;;1.30;0.80;;;;;;;;;;5006435;28;20021;-60
2021/01/26 11:44:39;;;;;;;1.45;0.60;;;;;;;;;;5008593;28;20159;-61
2021/01/26 11:47:06;;;;;;;10.00;1.17;;;;;;;;;;4997701;28;20036;-61
2021/01/26 11:49:37;;;;;;;2.13;1.23;;;;;;;;;;5005691;28;20140;-60
2021/01/26 11:52:03;;;;;;;1.25;0.90;;;;;;;;;;4999407;28;20484;-60
2021/01/26 11:54:28;;;;;;;2.85;1.10;;;;;;;;;;5018772;28;20160;-61
2021/01/26 11:56:54;;;;;;;4.00;1.40;;;;;;;;;;4989126;28;20037;-61
2021/01/26 11:59:20;;;;;;;3.17;1.05;;;;;;;;;;4980426;28;20463;-61
2021/01/26 12:01:45;;;;;;;3.78;1.23;;;;;;;;;;5011597;28;20108;-61
2021/01/26 12:04:10;;;;;;;2.47;0.77;;;;;;;;;;4984816;28;20460;-61
2021/01/26 12:06:41;;;;;;;2.63;0.70;;;;;;;;;;5000211;28;20033;-61
2021/01/26 12:09:13;;;;;;;5.57;0.60;;;;;;;;;;4983765;28;20060;-61
2021/01/26 12:11:41;;;;;;;1.48;0.80;;;;;;;;;;5005679;28;20041;-60
2021/01/26 12:14:10;;;;;;;2.25;0.68;;;;;;;;;;4999220;28;20053;-60
2021/01/26 12:16:35;;;;;;;1.08;0.68;;;;;;;;;;4986026;28;20029;-61
2021/01/26 12:19:01;;;;;;;5.03;0.80;;;;;;;;;;4992297;28;20426;-61
2021/01/26 12:21:28;;;;;;;1.40;0.50;;;;;;;;;;5011395;28;20110;-60
2021/01/26 12:23:54;;;;;;;3.60;0.60;;;;;;;;;;5012390;28;20081;-61
2021/01/26 12:26:19;;;;;;;2.28;0.70;;;;;;;;;;4994694;28;20135;-61
2021/01/26 12:28:47;;;;;;;2.15;0.40;;;;;;;;;;4998590;28;20617;-61
2021/01/26 12:31:13;;;;;;;1.70;0.47;;;;;;;;;;4993290;28;20045;-63
2021/01/26 12:33:41;;;;;;;4.28;0.60;;;;;;;;;;5010901;28;20064;-62
2021/01/26 12:36:09;;;;;;;1.17;0.60;;;;;;;;;;5012366;28;20064;-63
2021/01/26 12:38:34;;;;;;;4.70;0.65;;;;;;;;;;5025625;28;20048;-62
2021/01/26 12:41:00;;;;;;;4.30;0.93;;;;;;;;;;5007934;28;20038;-62
2021/01/26 12:43:25;;;;;;;2.22;0.57;;;;;;;;;;4988180;28;20025;-62
2021/01/26 12:45:55;;;;;;;3.15;0.85;;;;;;;;;;5026479;28;20134;-61
2021/01/26 12:48:23;;;;;;;1.45;0.68;;;;;;;;;;5004621;28;20312;-61
2021/01/26 12:50:51;;;;;;;3.47;0.90;;;;;;;;;;5011631;28;20029;-62
2021/01/26 12:53:19;;;;;;;5.13;0.80;;;;;;;;;;5015346;28;20812;-62
2021/01/26 12:55:47;;;;;;;3.10;0.77;;;;;;;;;;5015529;28;20028;-63
2021/01/26 12:58:12;;;;;;;3.13;1.10;;;;;;;;;;5014813;28;20096;-63
2021/01/26 13:00:38;;;;;;;2.50;1.00;;;;;;;;;;5014351;28;20041;-63
2021/01/26 13:03:04;;;;;;;5.80;1.38;;;;;;;;;;5015198;28;20079;-63
2021/01/26 13:05:30;;;;;;;2.25;1.05;;;;;;;;;;5014647;28;20104;-63
2021/01/26 13:07:56;;;;;;;5.70;1.25;;;;;;;;;;5009325;28;20112;-63
2021/01/26 13:10:22;;;;;;;3.80;1.00;;;;;;;;;;5013234;28;20241;-62
2021/01/26 13:12:49;;;;;;;1.40;0.90;;;;;;;;;;4995356;28;20493;-63
2021/01/26 13:15:19;;;;;;;1.50;1.00;;;;;;;;;;5012366;28;20354;-65
2021/01/26 13:17:46;;;;;;;5.13;1.17;;;;;;;;;;5013848;28;20286;-61
2021/01/26 13:20:12;;;;;;;2.38;1.40;;;;;;;;;;4996236;28;20152;-62
2021/01/26 13:22:42;;;;;;;4.20;1.27;;;;;;;;;;4998254;28;20203;-62
2021/01/26 13:25:09;;;;;;;2.65;0.90;;;;;;;;;;5013722;28;20103;-63
2021/01/26 13:27:36;;;;;;;3.47;1.40;;;;;;;;;;5002859;28;20044;-64
2021/01/26 13:30:05;;;;;;;6.75;1.45;;;;;;;;;;4994471;28;20555;-64
2021/01/26 13:32:31;;;;;;;5.53;1.10;;;;;;;;;;5013229;28;20029;-64
2021/01/26 13:34:56;;;;;;;4.43;0.95;;;;;;;;;;5028569;28;20499;-65
2021/01/26 13:37:22;;;;;;;4.72;0.70;;;;;;;;;;5015238;28;20032;-64
2021/01/26 13:39:47;;;;;;;7.72;1.08;;;;;;;;;;5015111;28;20377;-63
2021/01/26 13:42:12;;;;;;;4.50;0.98;;;;;;;;;;5029888;28;20380;-65
2021/01/26 13:44:39;;;;;;;2.92;0.90;;;;;;;;;;5012004;28;20067;-64
2021/01/26 13:47:05;;;;;;;2.33;0.93;;;;;;;;;;4999912;28;20029;-65
2021/01/26 13:49:33;;;;;;;3.80;1.33;;;;;;;;;;5013426;28;20048;-63
2021/01/26 13:51:59;;;;;;;3.72;0.90;;;;;;;;;;5014930;28;20024;-64
2021/01/26 13:54:27;;;;;;;9.85;1.38;;;;;;;;;;5023157;28;20031;-64
2021/01/26 13:56:55;;;;;;;5.45;1.10;;;;;;;;;;5012960;28;20484;-63
2021/01/26 13:59:23;;;;;;;1.92;0.80;;;;;;;;;;5027898;28;20866;-64
2021/01/26 14:01:48;;;;;;;4.72;1.10;;;;;;;;;;5011737;28;20124;-64
2021/01/26 14:04:16;;;;;;;3.28;1.08;;;;;;;;;;5012126;28;20034;-64
2021/01/26 14:06:45;;;;;;;4.47;1.60;;;;;;;;;;5011044;28;20087;-64
2021/01/26 14:09:14;;;;;;;7.45;1.40;;;;;;;;;;4996783;28;20104;-63
2021/01/26 14:11:42;;;;;;;4.30;1.15;;;;;;;;;;4996013;28;20161;-64
2021/01/26 14:14:11;;;;;;;7.30;1.70;;;;;;;;;;5002377;28;20111;-64
2021/01/26 14:16:38;;;;;;;2.50;1.30;;;;;;;;;;5013331;28;20063;-64
2021/01/26 14:19:09;;;;;;;6.82;1.23;;;;;;;;;;5014924;28;20071;-65
2021/01/26 14:21:35;;;;;;;5.15;1.40;;;;;;;;;;5013888;28;20505;-66
2021/01/26 14:24:03;;;;;;;3.83;1.30;;;;;;;;;;5018853;28;20047;-64
2021/01/26 14:26:31;;;;;;;3.50;1.38;;;;;;;;;;5028042;28;20378;-66
2021/01/26 14:28:59;;;;;;;6.68;1.70;;;;;;;;;;4995568;28;20104;-64
2021/01/26 14:31:31;;;;;;;3.40;1.60;;;;;;;;;;5026981;28;20028;-64
2021/01/26 14:33:57;;;;;;;8.00;2.33;;;;;;;;;;4995439;28;20033;-64
2021/01/26 14:36:22;;;;;;;4.40;2.28;;;;;;;;;;5026359;28;20741;-64
2021/01/26 14:38:50;;;;;;;7.03;2.28;;;;;;;;;;5025210;28;20048;-66
2021/01/26 14:41:15;;;;;;;9.80;3.05;;;;;;;;;;5013660;28;20026;-65
2021/01/26 14:43:41;;;;;;;9.45;4.43;;;;;;;;;;5010806;28;20033;-63
2021/01/26 14:46:07;;;;;;;9.10;3.00;;;;;;;;;;5013422;28;20025;-65
2021/01/26 14:48:36;;;;;;;6.32;1.42;;;;;;;;;;4981318;28;20046;-65
2021/01/26 14:51:05;;;;;;;4.43;1.70;;;;;;;;;;4980478;28;20033;-65
2021/01/26 14:53:32;;;;;;;6.70;1.52;;;;;;;;;;4969206;28;20073;-65
2021/01/26 14:56:00;;;;;;;2.92;1.42;;;;;;;;;;4999058;28;20478;-66
2021/01/26 14:58:28;;;;;;;9.23;1.55;;;;;;;;;;4986304;28;20044;-65
2021/01/26 15:00:54;;;;;;;1.33;1.00;;;;;;;;;;4977550;28;20102;-65
2021/01/26 15:03:22;;;;;;;6.93;1.70;;;;;;;;;;5001976;28;20043;-64
2021/01/26 15:05:48;;;;;;;3.13;1.30;;;;;;;;;;4993274;28;20339;-64
2021/01/26 15:08:14;;;;;;;4.15;1.55;;;;;;;;;;5005574;28;20041;-64
2021/01/26 15:10:41;;;;;;;2.50;1.50;;;;;;;;;;4987662;28;20029;-64
2021/01/26 15:13:06;;;;;;;5.32;1.42;;;;;;;;;;4984116;28;20050;-63
2021/01/26 15:15:32;;;;;;;10.77;1.75;;;;;;;;;;4987881;28;20033;-63
2021/01/26 15:18:01;;;;;;;7.80;1.30;;;;;;;;;;4986053;28;20038;-65